Time;durP1;ratioP1;P1;durP2;ratioP2;P2;SDS_P1;SDS_P2;PMS_P1;PMS_P2;Temp;Humidity;BMP_temperature;BMP_pressure;BME280_temperature;BME280_humidity;BME280_pressure;Samples;Min_cycle;Max_cycle;Signal;HPM_P1;HPM_P2
2024/01/29 00:01:15;;;;;;;25.23;13.23;;;0.30;99.90;-0.80;102051;;;;567883;252;24125;-76
2024/01/29 00:03:45;;;;;;;26.53;15.13;;;0.30;99.90;-0.80;102054;;;;567849;252;24114;-76
2024/01/29 00:06:11;;;;;;;22.47;14.23;;;0.30;99.90;-0.80;102060;;;;567653;252;24120;-77
2024/01/29 00:08:39;;;;;;;21.03;13.30;;;0.30;99.90;-0.70;102057;;;;567232;252;24141;-77
2024/01/29 00:11:10;;;;;;;32.72;18.05;;;0.30;99.90;-0.70;102064;;;;554164;253;35514;-76
2024/01/29 00:13:35;;;;;;;17.37;7.50;;;0.30;99.90;-0.70;102061;;;;558688;253;24116;-77
2024/01/29 00:16:07;;;;;;;14.00;8.03;;;0.30;99.90;-0.70;102067;;;;567585;252;24124;-77
2024/01/29 00:18:31;;;;;;;14.27;7.53;;;0.30;99.90;-0.70;102064;;;;559458;252;24143;-78
2024/01/29 00:21:02;;;;;;;17.30;8.80;;;0.30;99.90;-0.70;102058;;;;567578;252;24129;-77
2024/01/29 00:23:27;;;;;;;21.43;11.90;;;0.40;99.90;-0.70;102065;;;;558461;253;24228;-78
2024/01/29 00:25:55;;;;;;;25.70;12.13;;;0.40;99.90;-0.70;102057;;;;567365;252;24114;-77
2024/01/29 00:28:26;;;;;;;24.77;14.40;;;0.40;99.90;-0.70;102058;;;;567344;252;24176;-77
2024/01/29 00:30:51;;;;;;;28.10;14.57;;;0.40;99.90;-0.70;102047;;;;567084;253;24127;-76
2024/01/29 00:33:19;;;;;;;29.43;13.67;;;0.30;99.90;-0.80;102055;;;;567334;252;24210;-76
2024/01/29 00:35:47;;;;;;;28.83;14.03;;;0.30;99.90;-0.70;102068;;;;559031;253;24107;-76
2024/01/29 00:38:15;;;;;;;25.25;12.50;;;0.30;99.90;-0.80;102053;;;;562103;252;35484;-76
2024/01/29 00:40:42;;;;;;;17.13;6.43;;;0.30;99.90;-0.80;102056;;;;567113;252;25143;-76
2024/01/29 00:43:10;;;;;;;8.83;6.47;;;0.30;99.90;-0.80;102055;;;;567000;252;24126;-77
2024/01/29 00:45:39;;;;;;;14.97;8.30;;;0.30;99.90;-0.80;102055;;;;566947;252;24149;-75
2024/01/29 00:48:07;;;;;;;15.57;6.97;;;0.30;99.90;-0.80;102044;;;;567400;252;24168;-77
2024/01/29 00:50:35;;;;;;;13.27;8.03;;;0.30;99.90;-0.70;102045;;;;556656;257;24160;-77
2024/01/29 00:53:06;;;;;;;18.80;9.67;;;0.30;99.90;-0.70;102053;;;;546572;262;24170;-75
2024/01/29 00:55:31;;;;;;;18.43;8.67;;;0.30;99.90;-0.70;102065;;;;542890;259;24184;-77
2024/01/29 00:58:01;;;;;;;16.13;8.33;;;0.30;99.90;-0.70;102054;;;;557222;252;24123;-77
2024/01/29 01:00:26;;;;;;;26.03;13.93;;;0.30;99.90;-0.60;102046;;;;560061;250;24134;-76
2024/01/29 01:02:55;;;;;;;23.23;14.60;;;0.40;99.90;-0.50;102044;;;;568283;252;24212;-76
2024/01/29 01:05:22;;;;;;;33.63;14.37;;;0.50;99.90;-0.40;102055;;;;568171;252;24144;-76
2024/01/29 01:07:50;;;;;;;24.33;15.30;;;0.60;99.90;-0.40;102045;;;;567955;252;24097;-76
2024/01/29 01:10:19;;;;;;;20.97;9.53;;;0.70;99.90;-0.30;102049;;;;559291;253;24175;-76
2024/01/29 01:12:48;;;;;;;17.03;9.33;;;0.80;99.90;-0.20;102042;;;;567692;252;24118;-78
2024/01/29 01:15:15;;;;;;;14.90;8.80;;;0.80;99.90;-0.10;102042;;;;567428;252;24133;-77
2024/01/29 01:17:43;;;;;;;19.23;8.77;;;0.90;99.90;-0.10;102045;;;;567623;252;24107;-77
2024/01/29 01:20:11;;;;;;;15.60;7.03;;;0.90;99.90;0.00;102044;;;;567553;252;24127;-77
2024/01/29 01:22:39;;;;;;;13.43;6.70;;;1.00;99.90;0.00;102051;;;;556917;253;24155;-78
2024/01/29 01:25:07;;;;;;;17.73;6.90;;;1.00;99.90;0.00;102036;;;;558147;253;24100;-76
2024/01/29 01:27:35;;;;;;;13.97;8.40;;;1.00;99.90;0.10;102044;;;;558986;253;24140;-77
2024/01/29 01:30:07;;;;;;;19.33;7.63;;;1.10;99.90;0.10;102037;;;;556712;253;24142;-77
2024/01/29 01:32:31;;;;;;;22.03;8.90;;;1.10;99.90;0.10;102033;;;;558777;253;25153;-76
2024/01/29 01:34:59;;;;;;;10.77;7.33;;;1.10;99.90;0.10;102023;;;;556548;253;24151;-78
2024/01/29 01:37:27;;;;;;;15.47;6.90;;;1.10;99.90;0.10;102022;;;;557013;253;24126;-76
2024/01/29 01:39:55;;;;;;;15.73;8.83;;;1.10;99.90;0.10;102021;;;;567720;252;25176;-76
2024/01/29 01:42:23;;;;;;;21.17;8.20;;;1.10;99.90;0.10;102025;;;;557230;253;24116;-77
2024/01/29 01:44:50;;;;;;;22.57;7.80;;;1.10;99.90;0.10;102021;;;;557343;253;24128;-76
2024/01/29 01:47:18;;;;;;;12.07;7.80;;;1.10;99.90;0.00;102013;;;;558082;253;24107;-78
2024/01/29 01:49:46;;;;;;;25.27;8.73;;;1.00;99.90;-0.10;102024;;;;556680;253;24126;-77
2024/01/29 01:52:14;;;;;;;18.27;8.27;;;1.00;99.90;-0.10;102018;;;;557174;253;24148;-75
2024/01/29 01:54:42;;;;;;;19.13;10.03;;;0.90;99.90;-0.20;102020;;;;558300;253;24128;-77
2024/01/29 01:57:10;;;;;;;24.50;9.70;;;0.90;99.90;-0.20;102013;;;;558395;253;24153;-75
2024/01/29 01:59:38;;;;;;;32.53;10.73;;;0.80;99.90;-0.30;102007;;;;558624;253;24116;-76
2024/01/29 02:02:06;;;;;;;20.23;11.07;;;0.70;99.90;-0.40;102016;;;;547574;258;24358;-76
2024/01/29 02:04:34;;;;;;;18.03;10.67;;;0.70;99.90;-0.40;102007;;;;547867;258;24137;-77
2024/01/29 02:07:02;;;;;;;20.87;10.20;;;0.60;99.90;-0.40;102007;;;;546452;262;24229;-75
2024/01/29 02:09:30;;;;;;;24.67;11.03;;;0.60;99.90;-0.50;102008;;;;546188;258;24200;-75
2024/01/29 02:11:58;;;;;;;25.90;11.23;;;0.60;99.90;-0.50;102007;;;;546851;259;24169;-78
2024/01/29 02:14:26;;;;;;;20.03;10.47;;;0.50;99.90;-0.60;101990;;;;554385;258;24186;-77
2024/01/29 02:16:53;;;;;;;27.67;12.70;;;0.50;99.90;-0.60;101992;;;;549096;257;24146;-77
2024/01/29 02:19:22;;;;;;;29.83;13.20;;;0.40;99.90;-0.60;101991;;;;547161;262;24182;-76
2024/01/29 02:21:51;;;;;;;29.10;17.03;;;0.40;99.90;-0.60;101996;;;;547097;262;24293;-76
2024/01/29 02:24:19;;;;;;;30.83;19.13;;;0.40;99.90;-0.60;101982;;;;535503;262;24174;-76
2024/01/29 02:26:49;;;;;;;38.13;19.57;;;0.40;99.90;-0.60;101985;;;;546991;262;24198;-76
2024/01/29 02:29:18;;;;;;;38.70;20.97;;;0.40;99.90;-0.60;101984;;;;546527;262;24196;-76
2024/01/29 02:31:47;;;;;;;35.73;20.87;;;0.30;99.90;-0.70;101981;;;;546427;262;24204;-76
2024/01/29 02:34:15;;;;;;;37.67;20.97;;;0.30;99.90;-0.70;101975;;;;546557;262;24206;-77
2024/01/29 02:36:44;;;;;;;37.17;17.73;;;0.30;99.90;-0.70;101974;;;;546434;262;24175;-77
2024/01/29 02:39:12;;;;;;;39.17;22.40;;;0.30;99.90;-0.80;101966;;;;545631;259;24164;-76
2024/01/29 02:41:40;;;;;;;32.70;18.90;;;0.30;99.90;-0.80;101968;;;;553420;259;24188;-76
2024/01/29 02:44:08;;;;;;;38.00;21.60;;;0.30;99.90;-0.80;101956;;;;553847;259;24149;-76
2024/01/29 02:46:36;;;;;;;40.80;22.10;;;0.30;99.90;-0.80;101941;;;;553363;259;24147;-76
2024/01/29 02:49:04;;;;;;;43.50;21.63;;;0.20;99.90;-0.80;101937;;;;553065;259;24159;-76
2024/01/29 02:51:31;;;;;;;37.50;18.77;;;0.20;99.90;-0.80;101938;;;;553619;259;24202;-76
2024/01/29 02:53:59;;;;;;;40.50;20.83;;;0.20;99.90;-0.90;101937;;;;553641;259;24139;-76
2024/01/29 02:56:27;;;;;;;46.97;22.97;;;0.20;99.90;-0.90;101935;;;;553637;259;24132;-76
2024/01/29 02:58:55;;;;;;;40.13;21.00;;;0.10;99.90;-0.90;101931;;;;553638;259;24125;-76
2024/01/29 03:01:23;;;;;;;45.53;24.07;;;0.10;99.90;-0.90;101917;;;;553632;259;24155;-76
2024/01/29 03:03:51;;;;;;;42.80;23.17;;;0.10;99.90;-0.90;101915;;;;553620;259;24214;-76
2024/01/29 03:06:19;;;;;;;42.77;23.63;;;0.10;99.90;-1.00;101918;;;;553629;259;24136;-76
2024/01/29 03:08:47;;;;;;;37.87;22.67;;;0.10;99.90;-1.00;101920;;;;553629;259;24135;-76
2024/01/29 03:11:15;;;;;;;37.30;21.13;;;0.10;99.90;-1.00;101928;;;;553633;259;24154;-76
2024/01/29 03:13:44;;;;;;;42.33;23.33;;;0.00;99.90;-1.00;101919;;;;553423;259;24218;-76
2024/01/29 03:16:11;;;;;;;41.90;23.60;;;0.10;99.90;-1.00;101920;;;;553352;259;24169;-76
2024/01/29 03:18:38;;;;;;;38.50;22.20;;;0.00;99.90;-1.00;101916;;;;553239;259;24141;-76
2024/01/29 03:21:07;;;;;;;42.87;22.80;;;0.00;99.90;-1.00;101911;;;;554149;257;24138;-76
2024/01/29 03:23:36;;;;;;;40.97;21.10;;;0.00;99.90;-1.00;101917;;;;554781;258;24138;-76
2024/01/29 03:26:05;;;;;;;43.40;22.67;;;0.10;99.90;-1.00;101916;;;;554474;258;24198;-76
2024/01/29 03:28:33;;;;;;;47.23;23.23;;;0.00;99.90;-1.00;101913;;;;554000;258;24149;-76
2024/01/29 03:31:02;;;;;;;39.03;19.63;;;0.00;99.90;-1.00;101918;;;;553769;258;24179;-75
2024/01/29 03:33:30;;;;;;;36.73;20.03;;;0.00;99.90;-1.00;101910;;;;553779;258;24138;-76
2024/01/29 03:35:58;;;;;;;35.27;20.30;;;0.00;99.90;-1.00;101906;;;;553737;258;24151;-76
2024/01/29 03:38:26;;;;;;;44.60;22.90;;;0.10;99.90;-1.00;101910;;;;553864;258;24221;-75
2024/01/29 03:40:54;;;;;;;39.93;20.27;;;0.00;99.90;-1.00;101906;;;;545563;259;24151;-75
2024/01/29 03:43:22;;;;;;;35.90;19.37;;;0.00;99.90;-1.00;101902;;;;553631;259;24159;-77
2024/01/29 03:45:49;;;;;;;35.43;18.63;;;0.00;99.90;-1.00;101904;;;;553553;259;24150;-76
2024/01/29 03:48:20;;;;;;;43.10;21.27;;;0.00;99.90;-1.00;101899;;;;553473;259;24146;-76
2024/01/29 03:50:45;;;;;;;45.03;21.80;;;0.00;99.90;-1.00;101895;;;;545324;259;24209;-76
2024/01/29 03:53:18;;;;;;;45.83;20.07;;;0.10;99.90;-1.00;101902;;;;553835;259;24173;-76
2024/01/29 03:55:43;;;;;;;30.93;17.73;;;0.10;99.90;-1.00;101904;;;;545719;259;24176;-73
2024/01/29 03:58:11;;;;;;;36.83;18.63;;;0.00;99.90;-1.00;101896;;;;553657;259;24151;-75
2024/01/29 04:00:40;;;;;;;35.87;18.27;;;0.00;99.90;-1.00;101899;;;;553676;259;24156;-74
2024/01/29 04:03:09;;;;;;;32.50;15.40;;;0.00;99.90;-1.00;101900;;;;556662;257;24127;-75
2024/01/29 04:05:37;;;;;;;31.80;17.47;;;0.00;99.90;-1.00;101895;;;;546592;260;24154;-74
2024/01/29 04:08:09;;;;;;;33.93;18.43;;;0.00;99.90;-1.10;101889;;;;538830;262;24179;-75
2024/01/29 04:10:33;;;;;;;45.63;23.00;;;0.00;99.90;-1.10;101882;;;;541703;262;24223;-75
2024/01/29 04:13:01;;;;;;;37.83;18.60;;;0.00;99.90;-1.10;101885;;;;546587;262;24156;-75
2024/01/29 04:15:29;;;;;;;29.17;16.73;;;0.00;99.90;-1.10;101884;;;;546339;262;24201;-76
2024/01/29 04:17:57;;;;;;;38.30;18.53;;;0.00;99.90;-1.10;101883;;;;546171;261;24191;-76
2024/01/29 04:20:25;;;;;;;40.17;22.00;;;0.00;99.90;-1.00;101880;;;;546364;262;24190;-75
2024/01/29 04:22:53;;;;;;;35.77;18.87;;;0.00;99.90;-1.00;101883;;;;539024;262;24174;-75
2024/01/29 04:25:21;;;;;;;35.93;20.00;;;0.00;99.90;-1.00;101872;;;;546719;262;24174;-76
2024/01/29 04:27:51;;;;;;;22.43;12.13;;;0.00;99.90;-1.00;101877;;;;546293;262;24244;-75
2024/01/29 04:30:17;;;;;;;23.53;14.57;;;0.00;99.90;-1.00;101874;;;;546158;261;24162;-75
2024/01/29 04:32:45;;;;;;;29.90;16.37;;;0.00;99.90;-1.00;101883;;;;546778;261;24190;-76
2024/01/29 04:35:12;;;;;;;32.13;16.67;;;0.00;99.90;-1.00;101872;;;;547336;262;24160;-75
2024/01/29 04:37:40;;;;;;;33.13;14.27;;;0.00;99.90;-1.00;101876;;;;547174;262;24225;-75
2024/01/29 04:40:09;;;;;;;32.30;17.53;;;0.00;99.90;-1.00;101877;;;;548936;256;24159;-75
2024/01/29 04:42:37;;;;;;;35.83;15.97;;;0.10;99.90;-0.90;101873;;;;546898;262;24174;-75
2024/01/29 04:45:07;;;;;;;31.87;18.23;;;0.10;99.90;-0.90;101871;;;;546651;262;24191;-75
2024/01/29 04:47:37;;;;;;;18.67;10.47;;;0.10;99.90;-1.00;101861;;;;545175;259;24199;-75
2024/01/29 04:50:03;;;;;;;17.70;9.20;;;0.10;99.90;-0.90;101855;;;;545690;259;24161;-75
2024/01/29 04:52:30;;;;;;;20.63;9.47;;;0.10;99.90;-0.90;101852;;;;556815;253;24120;-75
2024/01/29 04:54:58;;;;;;;18.40;8.53;;;0.10;99.90;-1.00;101857;;;;567604;252;24107;-74
2024/01/29 04:57:26;;;;;;;18.93;9.27;;;0.10;99.90;-1.00;101855;;;;567631;252;24164;-74
2024/01/29 04:59:57;;;;;;;28.53;10.47;;;0.10;99.90;-1.00;101857;;;;556873;253;24112;-75
2024/01/29 05:02:22;;;;;;;17.30;10.33;;;0.10;99.90;-1.00;101855;;;;559400;252;24116;-75
2024/01/29 05:04:50;;;;;;;21.37;10.03;;;0.00;99.90;-1.00;101849;;;;567268;252;24119;-75
2024/01/29 05:07:18;;;;;;;20.80;10.43;;;0.00;99.90;-1.00;101853;;;;567362;252;24108;-76
2024/01/29 05:09:45;;;;;;;30.07;9.07;;;0.00;99.90;-1.00;101856;;;;567085;252;24143;-76
2024/01/29 05:12:13;;;;;;;23.57;9.67;;;0.00;99.90;-1.00;101853;;;;567395;252;24131;-75
2024/01/29 05:14:41;;;;;;;23.93;8.37;;;0.00;99.90;-1.00;101858;;;;567082;252;24133;-76
2024/01/29 05:17:09;;;;;;;19.00;10.60;;;0.00;99.90;-1.00;101855;;;;566946;253;24124;-75
2024/01/29 05:19:40;;;;;;;29.92;16.17;;;0.00;99.90;-0.90;101850;;;;553387;253;35486;-76
2024/01/29 05:22:05;;;;;;;24.30;12.47;;;0.10;99.90;-0.90;101848;;;;567371;252;24150;-75
2024/01/29 05:24:34;;;;;;;22.63;9.80;;;0.10;99.90;-0.90;101861;;;;567361;252;24127;-76
2024/01/29 05:27:05;;;;;;;12.83;5.93;;;0.10;99.90;-1.00;101859;;;;567167;252;24141;-75
2024/01/29 05:29:30;;;;;;;16.63;8.50;;;0.10;99.90;-1.00;101871;;;;554508;253;24120;-74
2024/01/29 05:31:58;;;;;;;22.03;9.20;;;0.10;99.90;-1.00;101857;;;;567019;252;24119;-75
2024/01/29 05:34:26;;;;;;;17.53;8.67;;;0.10;99.90;-1.00;101861;;;;566906;252;24135;-75
2024/01/29 05:36:54;;;;;;;21.53;9.57;;;0.10;99.90;-1.00;101864;;;;567107;252;24148;-75
2024/01/29 05:39:22;;;;;;;14.83;8.83;;;0.10;99.90;-1.00;101852;;;;566977;252;24115;-76
2024/01/29 05:41:50;;;;;;;30.88;16.80;;;0.00;99.90;-1.00;101843;;;;562341;252;35446;-75
2024/01/29 05:44:18;;;;;;;20.50;9.87;;;0.00;99.90;-1.00;101855;;;;567823;251;24128;-75
2024/01/29 05:46:46;;;;;;;28.03;9.10;;;0.10;99.90;-1.00;101860;;;;568669;252;24209;-74
2024/01/29 05:49:14;;;;;;;16.80;7.93;;;0.10;99.90;-1.00;101858;;;;568559;252;24103;-74
2024/01/29 05:51:42;;;;;;;16.93;8.53;;;0.10;99.90;-1.00;101861;;;;568190;252;24115;-74
2024/01/29 05:54:09;;;;;;;21.10;7.33;;;0.10;99.90;-0.90;101859;;;;568523;252;24122;-73
2024/01/29 05:56:37;;;;;;;12.00;7.60;;;0.10;99.90;-0.90;101870;;;;568342;252;24103;-74
2024/01/29 05:59:09;;;;;;;15.90;8.30;;;0.10;99.90;-0.90;101859;;;;559697;253;24155;-75
2024/01/29 06:01:33;;;;;;;18.83;8.00;;;0.10;99.90;-0.90;101871;;;;559775;253;24124;-76
2024/01/29 06:04:01;;;;;;;14.87;9.07;;;0.10;99.90;-0.90;101864;;;;567833;252;24214;-75
2024/01/29 06:06:29;;;;;;;12.37;7.87;;;0.10;99.90;-0.90;101879;;;;567827;252;24114;-75
2024/01/29 06:08:58;;;;;;;20.77;11.30;;;0.10;99.90;-0.90;101864;;;;567657;252;24108;-75
2024/01/29 06:11:26;;;;;;;26.10;10.13;;;0.10;99.90;-0.90;101870;;;;567652;252;24105;-75
2024/01/29 06:13:54;;;;;;;25.07;12.80;;;0.10;99.90;-1.00;101875;;;;567683;251;24120;-76
2024/01/29 06:16:23;;;;;;;24.60;12.73;;;0.00;99.90;-1.00;101861;;;;567668;252;24136;-76
2024/01/29 06:18:51;;;;;;;22.97;14.80;;;0.00;99.90;-1.00;101877;;;;559475;251;24175;-75
2024/01/29 06:21:19;;;;;;;26.13;17.10;;;0.00;99.90;-1.00;101870;;;;556681;257;24147;-76
2024/01/29 06:23:47;;;;;;;28.93;14.97;;;0.00;99.90;-1.00;101869;;;;535229;262;24206;-74
2024/01/29 06:26:15;;;;;;;26.47;14.20;;;0.00;99.90;-1.00;101865;;;;546649;262;24179;-75
2024/01/29 06:28:43;;;;;;;24.03;13.87;;;0.10;99.90;-0.90;101864;;;;545418;259;24139;-74
2024/01/29 06:31:12;;;;;;;22.07;13.33;;;0.10;99.90;-0.90;101877;;;;556319;257;24185;-75
2024/01/29 06:33:41;;;;;;;29.00;15.90;;;0.10;99.90;-0.90;101870;;;;538426;262;24229;-74
2024/01/29 06:36:09;;;;;;;28.83;13.03;;;0.10;99.90;-0.80;101862;;;;546324;262;24179;-74
2024/01/29 06:38:37;;;;;;;34.03;16.57;;;0.20;99.90;-0.80;101861;;;;545850;262;24234;-74
2024/01/29 06:41:05;;;;;;;23.60;15.20;;;0.20;99.90;-0.80;101863;;;;546338;262;24167;-76
2024/01/29 06:43:36;;;;;;;18.77;12.97;;;0.30;99.90;-0.70;101860;;;;546278;262;24185;-75
2024/01/29 06:46:01;;;;;;;26.93;13.90;;;0.30;99.90;-0.70;101865;;;;541701;262;24178;-75
2024/01/29 06:48:29;;;;;;;26.23;11.63;;;0.30;99.90;-0.70;101862;;;;546144;262;24185;-75
2024/01/29 06:50:57;;;;;;;19.07;11.43;;;0.40;99.90;-0.60;101859;;;;546236;262;24155;-75
2024/01/29 06:53:25;;;;;;;17.13;9.47;;;0.40;99.90;-0.60;101856;;;;546629;261;24178;-75
2024/01/29 06:55:53;;;;;;;15.20;9.77;;;0.40;99.90;-0.50;101859;;;;547106;261;24191;-75
2024/01/29 06:58:21;;;;;;;13.63;7.20;;;0.50;99.90;-0.50;101861;;;;536296;262;24270;-74
2024/01/29 07:00:50;;;;;;;16.83;8.70;;;0.50;99.90;-0.40;101865;;;;547585;262;24156;-75
2024/01/29 07:03:18;;;;;;;12.80;6.73;;;0.60;99.90;-0.40;101872;;;;547492;262;24165;-76
2024/01/29 07:05:45;;;;;;;21.87;9.20;;;0.60;99.90;-0.30;101859;;;;546269;259;24142;-77
2024/01/29 07:08:13;;;;;;;14.20;8.23;;;0.70;99.90;-0.30;101858;;;;557338;253;24123;-74
2024/01/29 07:10:41;;;;;;;18.87;8.10;;;0.70;99.90;-0.30;101858;;;;567917;252;24112;-75
2024/01/29 07:13:09;;;;;;;14.57;7.30;;;0.80;99.90;-0.20;101853;;;;567968;252;24149;-75
2024/01/29 07:15:38;;;;;;;13.27;6.30;;;0.80;99.90;-0.20;101853;;;;567645;252;24112;-76
2024/01/29 07:18:06;;;;;;;11.33;6.50;;;0.80;99.90;-0.10;101849;;;;559258;253;24112;-75
2024/01/29 07:20:39;;;;;;;15.47;7.97;;;0.90;99.90;-0.10;101861;;;;567292;252;24132;-75
2024/01/29 07:23:02;;;;;;;14.80;8.57;;;0.90;99.90;0.00;101850;;;;567615;252;24116;-75
2024/01/29 07:25:31;;;;;;;15.90;7.73;;;1.00;99.90;0.00;101861;;;;557084;253;24117;-76
2024/01/29 07:27:59;;;;;;;8.57;6.57;;;1.00;99.90;0.00;101851;;;;556629;253;24132;-76
2024/01/29 07:30:30;;;;;;;10.73;6.60;;;1.10;99.90;0.10;101860;;;;556722;253;24131;-76
2024/01/29 07:32:53;;;;;;;13.23;7.73;;;1.10;99.90;0.10;101869;;;;558470;253;24126;-76
2024/01/29 07:35:21;;;;;;;19.57;7.13;;;1.20;99.90;0.20;101863;;;;556446;253;24103;-76
2024/01/29 07:37:49;;;;;;;10.13;7.17;;;1.20;99.90;0.30;101859;;;;556357;253;24244;-75
2024/01/29 07:40:21;;;;;;;13.47;7.33;;;1.30;99.90;0.30;101859;;;;556548;253;24115;-78
2024/01/29 07:42:48;;;;;;;13.20;6.57;;;1.40;99.90;0.40;101865;;;;558094;253;24113;-78
2024/01/29 07:45:16;;;;;;;19.07;9.03;;;1.40;99.90;0.40;101869;;;;557377;253;24169;-75
2024/01/29 07:47:41;;;;;;;16.07;7.13;;;1.50;99.90;0.50;101863;;;;558647;253;24141;-76
2024/01/29 07:50:09;;;;;;;18.60;9.07;;;1.50;99.90;0.50;101857;;;;567434;252;24148;-76
2024/01/29 07:52:37;;;;;;;14.17;8.50;;;1.50;99.90;0.50;101863;;;;567638;251;24115;-76
2024/01/29 07:55:05;;;;;;;14.13;7.83;;;1.60;99.90;0.60;101863;;;;556572;253;24150;-76
2024/01/29 07:57:33;;;;;;;17.43;6.90;;;1.60;99.90;0.60;101862;;;;558656;253;24157;-76
2024/01/29 08:00:00;;;;;;;12.90;6.93;;;1.70;99.90;0.70;101865;;;;556514;253;24127;-76
2024/01/29 08:02:29;;;;;;;18.37;6.43;;;1.80;99.90;0.70;101870;;;;556442;253;24203;-77
2024/01/29 08:04:57;;;;;;;8.93;5.73;;;1.70;99.90;0.80;101873;;;;556589;253;24109;-77
2024/01/29 08:07:26;;;;;;;18.63;7.70;;;1.80;99.90;0.90;101874;;;;557075;252;24114;-77
2024/01/29 08:09:53;;;;;;;13.50;7.83;;;1.90;99.90;0.90;101875;;;;557735;252;24139;-77
2024/01/29 08:12:21;;;;;;;14.60;7.47;;;2.00;99.90;0.90;101877;;;;557322;253;24159;-77
2024/01/29 08:14:50;;;;;;;17.33;9.00;;;2.00;99.90;1.10;101869;;;;557095;253;24140;-76
2024/01/29 08:17:17;;;;;;;15.80;8.10;;;2.10;99.90;1.10;101870;;;;559342;253;24133;-77
2024/01/29 08:19:45;;;;;;;15.00;9.73;;;2.10;99.90;1.20;101870;;;;556926;253;24104;-78
2024/01/29 08:22:14;;;;;;;19.00;8.87;;;2.30;99.90;1.30;101860;;;;567968;252;24120;-76
2024/01/29 08:24:42;;;;;;;15.97;8.40;;;2.30;99.90;1.40;101864;;;;556889;253;24120;-78
2024/01/29 08:27:12;;;;;;;16.50;8.50;;;2.40;99.90;1.50;101870;;;;557017;253;24167;-78
2024/01/29 08:29:38;;;;;;;21.77;10.13;;;2.50;99.90;1.60;101872;;;;567075;253;24164;-77
2024/01/29 08:32:06;;;;;;;19.07;8.13;;;2.60;99.90;1.80;101870;;;;556722;253;24117;-78
2024/01/29 08:34:33;;;;;;;21.10;9.73;;;2.70;99.90;1.90;101879;;;;567392;252;24118;-78
2024/01/29 08:37:01;;;;;;;16.13;9.40;;;2.90;99.90;2.10;101875;;;;556629;253;24116;-77
2024/01/29 08:39:30;;;;;;;23.83;9.77;;;3.00;99.90;2.20;101876;;;;556855;253;24099;-77
2024/01/29 08:41:57;;;;;;;15.93;8.87;;;3.10;99.90;2.30;101870;;;;556776;253;24139;-77
2024/01/29 08:44:26;;;;;;;18.07;8.57;;;3.40;99.90;2.40;101882;;;;556862;253;24138;-75
2024/01/29 08:46:54;;;;;;;23.83;13.48;;;3.40;99.90;2.50;101884;;;;552170;253;46404;-77
2024/01/29 08:49:22;;;;;;;18.73;11.90;;;3.50;99.90;2.60;101884;;;;567088;252;24128;-77
2024/01/29 08:51:50;;;;;;;18.80;9.97;;;3.60;99.90;2.70;101887;;;;566942;253;24159;-77
2024/01/29 08:54:21;;;;;;;24.70;9.87;;;3.70;99.90;2.80;101877;;;;556822;253;24118;-75
2024/01/29 08:56:45;;;;;;;16.40;9.10;;;3.80;99.90;3.00;101882;;;;558903;253;24113;-78
2024/01/29 08:59:19;;;;;;;17.93;8.80;;;4.00;99.90;3.00;101877;;;;556795;253;24120;-77
2024/01/29 09:01:42;;;;;;;19.33;11.90;;;4.00;99.90;3.20;101878;;;;551636;253;35485;-77
2024/01/29 09:04:10;;;;;;;15.60;9.40;;;4.10;99.90;3.30;101885;;;;567413;251;24108;-76
2024/01/29 09:06:38;;;;;;;15.97;9.47;;;4.30;99.90;3.40;101882;;;;556736;253;24104;-74
2024/01/29 09:09:07;;;;;;;21.37;8.97;;;4.50;99.90;3.60;101893;;;;556841;253;24104;-76
2024/01/29 09:11:34;;;;;;;14.63;8.40;;;4.50;99.90;3.70;101889;;;;556736;253;24112;-76
2024/01/29 09:14:02;;;;;;;17.87;8.20;;;4.70;99.90;3.90;101889;;;;556690;253;24142;-76
2024/01/29 09:16:30;;;;;;;14.27;7.93;;;4.80;99.90;4.00;101883;;;;556831;253;24119;-77
2024/01/29 09:19:02;;;;;;;11.00;7.20;;;5.10;99.90;4.10;101889;;;;557250;252;24121;-75
2024/01/29 09:21:34;;;;;;;11.30;7.57;;;5.20;99.90;4.20;101880;;;;558956;252;24127;-76
2024/01/29 09:23:55;;;;;;;14.67;8.87;;;5.20;99.90;4.40;101882;;;;556922;253;24135;-76
2024/01/29 09:26:23;;;;;;;16.20;8.73;;;5.30;99.90;4.50;101874;;;;557478;253;24138;-75
2024/01/29 09:28:51;;;;;;;12.53;8.00;;;5.40;99.90;4.60;101878;;;;556982;253;24160;-76
2024/01/29 09:31:19;;;;;;;13.47;6.63;;;5.50;99.90;4.80;101874;;;;556900;253;24126;-76
2024/01/29 09:33:47;;;;;;;14.10;8.23;;;5.70;99.90;4.90;101876;;;;557089;253;24115;-76
2024/01/29 09:36:15;;;;;;;14.90;8.10;;;5.80;99.90;5.00;101885;;;;557036;253;24112;-76
2024/01/29 09:38:43;;;;;;;11.30;6.93;;;6.00;99.90;5.30;101878;;;;556990;253;24108;-74
2024/01/29 09:41:11;;;;;;;13.57;8.00;;;6.20;99.90;5.40;101873;;;;556874;253;24116;-76
2024/01/29 09:43:39;;;;;;;12.70;7.67;;;6.40;99.90;5.50;101865;;;;558929;253;24122;-75
2024/01/29 09:46:07;;;;;;;13.27;8.37;;;6.60;99.90;5.70;101865;;;;556663;253;24120;-77
2024/01/29 09:48:34;;;;;;;15.67;7.93;;;6.80;99.90;6.00;101873;;;;556577;253;24145;-77
2024/01/29 09:51:02;;;;;;;12.60;7.97;;;7.10;99.90;6.30;101858;;;;557953;253;24156;-75
2024/01/29 09:53:30;;;;;;;16.40;7.70;;;7.40;99.90;6.70;101861;;;;558844;253;24119;-75
2024/01/29 09:55:59;;;;;;;14.00;7.57;;;8.00;99.90;6.90;101872;;;;556801;253;24114;-77
2024/01/29 09:58:27;;;;;;;10.93;7.53;;;8.00;99.90;7.10;101865;;;;556504;253;24112;-75
2024/01/29 10:00:58;;;;;;;17.67;7.40;;;8.20;99.90;7.00;101859;;;;556344;253;24166;-76
2024/01/29 10:03:23;;;;;;;16.83;8.57;;;8.10;99.90;6.70;101851;;;;558013;253;24218;-76
2024/01/29 10:05:53;;;;;;;11.00;7.27;;;7.80;99.90;6.40;101848;;;;556340;253;25165;-76
2024/01/29 10:08:18;;;;;;;19.13;7.83;;;7.50;99.90;6.10;101837;;;;558536;253;24144;-75
2024/01/29 10:10:46;;;;;;;11.73;7.93;;;7.30;99.90;6.00;101851;;;;567061;253;24128;-76
2024/01/29 10:13:14;;;;;;;13.40;7.60;;;7.00;99.90;5.80;101831;;;;556308;253;25184;-75
2024/01/29 10:15:45;;;;;;;11.87;7.33;;;6.80;99.90;5.70;101837;;;;556395;253;24150;-76
2024/01/29 10:18:13;;;;;;;19.17;8.03;;;6.70;99.90;5.60;101829;;;;567018;252;24130;-75
2024/01/29 10:20:41;;;;;;;20.13;7.43;;;6.60;99.90;5.60;101831;;;;557804;253;24109;-75
2024/01/29 10:23:10;;;;;;;11.87;6.77;;;6.50;99.90;5.50;101840;;;;556435;253;24168;-75
2024/01/29 10:25:38;;;;;;;8.47;5.40;;;6.40;99.90;5.50;101828;;;;559028;253;24118;-74
2024/01/29 10:28:12;;;;;;;16.50;8.27;;;6.40;99.90;5.50;101831;;;;556294;253;24150;-75
2024/01/29 10:30:43;;;;;;;10.80;6.03;;;6.40;99.90;5.40;101828;;;;559433;252;24110;-75
2024/01/29 10:33:11;;;;;;;14.77;7.13;;;6.30;99.90;5.40;101844;;;;557652;252;25174;-75
2024/01/29 10:35:39;;;;;;;14.97;7.60;;;6.30;99.90;5.40;101833;;;;557252;253;24108;-75
2024/01/29 10:38:08;;;;;;;9.97;7.10;;;6.30;99.90;5.50;101831;;;;557250;253;24127;-77
2024/01/29 10:40:36;;;;;;;12.50;7.30;;;6.30;99.90;5.40;101833;;;;557095;253;25169;-75
2024/01/29 10:43:04;;;;;;;12.60;7.47;;;6.30;99.90;5.50;101824;;;;559252;253;24178;-75
2024/01/29 10:45:31;;;;;;;14.40;7.70;;;6.30;99.90;5.50;101826;;;;558737;253;24117;-75
2024/01/29 10:48:03;;;;;;;9.10;6.43;;;6.30;99.90;5.50;101823;;;;556511;253;24182;-75
2024/01/29 10:50:31;;;;;;;14.37;8.90;;;6.30;99.90;5.50;101811;;;;548361;257;24223;-76
2024/01/29 10:52:59;;;;;;;12.43;7.43;;;6.30;99.90;5.50;101810;;;;545069;259;24168;-75
2024/01/29 10:55:30;;;;;;;17.37;7.43;;;6.30;99.90;5.40;101806;;;;557628;253;24208;-76
2024/01/29 10:57:55;;;;;;;19.00;8.30;;;6.30;99.90;5.40;101794;;;;559113;253;24144;-75
2024/01/29 11:00:22;;;;;;;11.47;6.83;;;6.30;99.90;5.40;101792;;;;556993;253;24120;-74
2024/01/29 11:02:54;;;;;;;9.90;6.87;;;6.20;99.90;5.30;101796;;;;556908;253;24173;-78
2024/01/29 11:05:23;;;;;;;9.43;6.77;;;6.20;99.90;5.30;101790;;;;559076;253;24155;-77
2024/01/29 11:07:51;;;;;;;12.37;7.50;;;6.20;99.90;5.30;101795;;;;556787;253;25171;-76
2024/01/29 11:10:24;;;;;;;13.13;5.23;;;6.20;99.90;5.30;101791;;;;557522;253;24168;-76
2024/01/29 11:12:52;;;;;;;10.33;6.80;;;6.10;99.90;5.20;101782;;;;556731;253;24116;-76